sensor_id;sensor_type;location;lat;lon;timestamp;temperature;humidity
12115;DHT22;6121;49.810;6.418;2022-08-19T00:01:38;19.50;99.90
12115;DHT22;6121;49.810;6.418;2022-08-19T00:04:12;19.20;99.90
12115;DHT22;6121;49.810;6.418;2022-08-19T00:06:40;19.10;99.90
12115;DHT22;6121;49.810;6.418;2022-08-19T00:09:08;19.00;99.90
12115;DHT22;6121;49.810;6.418;2022-08-19T00:11:34;19.00;99.90
12115;DHT22;6121;49.810;6.418;2022-08-19T00:14:02;18.80;99.90
12115;DHT22;6121;49.810;6.418;2022-08-19T00:16:27;18.70;99.90
12115;DHT22;6121;49.810;6.418;2022-08-19T00:18:54;18.80;99.90
12115;DHT22;6121;49.810;6.418;2022-08-19T00:21:20;18.70;99.90
12115;DHT22;6121;49.810;6.418;2022-08-19T00:23:46;18.70;99.90
12115;DHT22;6121;49.810;6.418;2022-08-19T00:26:12;18.80;99.90
12115;DHT22;6121;49.810;6.418;2022-08-19T00:28:37;18.80;99.90
12115;DHT22;6121;49.810;6.418;2022-08-19T00:31:05;19.10;99.90
12115;DHT22;6121;49.810;6.418;2022-08-19T00:33:32;19.20;99.90
12115;DHT22;6121;49.810;6.418;2022-08-19T00:35:59;19.10;99.90
12115;DHT22;6121;49.810;6.418;2022-08-19T00:38:25;19.10;99.90
12115;DHT22;6121;49.810;6.418;2022-08-19T00:40:50;19.30;99.90
12115;DHT22;6121;49.810;6.418;2022-08-19T00:43:20;19.20;99.90
12115;DHT22;6121;49.810;6.418;2022-08-19T00:45:47;19.10;99.90
12115;DHT22;6121;49.810;6.418;2022-08-19T00:48:14;19.30;99.90
12115;DHT22;6121;49.810;6.418;2022-08-19T00:50:41;19.00;99.90
12115;DHT22;6121;49.810;6.418;2022-08-19T00:53:09;18.70;99.90
12115;DHT22;6121;49.810;6.418;2022-08-19T00:55:37;18.60;99.90
12115;DHT22;6121;49.810;6.418;2022-08-19T00:58:07;18.50;99.90
12115;DHT22;6121;49.810;6.418;2022-08-19T01:00:34;18.40;99.90
12115;DHT22;6121;49.810;6.418;2022-08-19T01:03:05;18.50;99.90
12115;DHT22;6121;49.810;6.418;2022-08-19T01:05:32;18.60;99.90
12115;DHT22;6121;49.810;6.418;2022-08-19T01:07:59;18.70;99.90
12115;DHT22;6121;49.810;6.418;2022-08-19T01:10:30;18.70;99.90
12115;DHT22;6121;49.810;6.418;2022-08-19T01:12:58;18.70;99.90
12115;DHT22;6121;49.810;6.418;2022-08-19T01:15:32;18.50;99.90
12115;DHT22;6121;49.810;6.418;2022-08-19T01:18:02;18.50;99.90
12115;DHT22;6121;49.810;6.418;2022-08-19T01:20:30;18.40;99.90
12115;DHT22;6121;49.810;6.418;2022-08-19T01:22:58;18.50;99.90
12115;DHT22;6121;49.810;6.418;2022-08-19T01:25:44;18.60;99.90
12115;DHT22;6121;49.810;6.418;2022-08-19T01:28:23;18.70;99.90
12115;DHT22;6121;49.810;6.418;2022-08-19T01:30:51;18.50;99.90
12115;DHT22;6121;49.810;6.418;2022-08-19T01:33:17;18.40;99.90
12115;DHT22;6121;49.810;6.418;2022-08-19T01:35:44;18.50;99.90
12115;DHT22;6121;49.810;6.418;2022-08-19T01:38:23;18.40;99.90
12115;DHT22;6121;49.810;6.418;2022-08-19T01:40:49;18.40;99.90
12115;DHT22;6121;49.810;6.418;2022-08-19T01:43:14;18.20;99.90
12115;DHT22;6121;49.810;6.418;2022-08-19T01:45:40;18.10;99.90
12115;DHT22;6121;49.810;6.418;2022-08-19T01:48:07;18.20;99.90
12115;DHT22;6121;49.810;6.418;2022-08-19T01:50:33;18.10;99.90
12115;DHT22;6121;49.810;6.418;2022-08-19T01:53:01;18.00;99.90
12115;DHT22;6121;49.810;6.418;2022-08-19T01:55:27;18.10;99.90
12115;DHT22;6121;49.810;6.418;2022-08-19T01:57:56;17.90;99.90
12115;DHT22;6121;49.810;6.418;2022-08-19T02:00:25;17.90;99.90
12115;DHT22;6121;49.810;6.418;2022-08-19T02:02:51;17.80;99.90
12115;DHT22;6121;49.810;6.418;2022-08-19T02:05:16;17.90;99.90
12115;DHT22;6121;49.810;6.418;2022-08-19T02:07:44;17.90;99.90
12115;DHT22;6121;49.810;6.418;2022-08-19T02:10:14;17.90;99.90
12115;DHT22;6121;49.810;6.418;2022-08-19T02:12:40;17.90;99.90
12115;DHT22;6121;49.810;6.418;2022-08-19T02:15:06;18.10;99.90
12115;DHT22;6121;49.810;6.418;2022-08-19T02:17:33;18.20;99.90
12115;DHT22;6121;49.810;6.418;2022-08-19T02:19:59;18.20;99.90
12115;DHT22;6121;49.810;6.418;2022-08-19T02:22:26;18.20;99.90
12115;DHT22;6121;49.810;6.418;2022-08-19T02:24:52;18.20;99.90
12115;DHT22;6121;49.810;6.418;2022-08-19T02:27:18;18.00;99.90
12115;DHT22;6121;49.810;6.418;2022-08-19T02:29:47;18.00;99.90
12115;DHT22;6121;49.810;6.418;2022-08-19T02:32:13;17.80;99.90
12115;DHT22;6121;49.810;6.418;2022-08-19T02:34:39;17.80;99.90
12115;DHT22;6121;49.810;6.418;2022-08-19T02:37:05;17.70;99.90
12115;DHT22;6121;49.810;6.418;2022-08-19T02:39:51;17.80;99.90
12115;DHT22;6121;49.810;6.418;2022-08-19T02:42:16;17.70;99.90
12115;DHT22;6121;49.810;6.418;2022-08-19T02:44:42;17.70;99.90
12115;DHT22;6121;49.810;6.418;2022-08-19T02:47:08;17.60;99.90
12115;DHT22;6121;49.810;6.418;2022-08-19T02:49:34;17.60;99.90
12115;DHT22;6121;49.810;6.418;2022-08-19T02:52:00;17.60;99.90
12115;DHT22;6121;49.810;6.418;2022-08-19T02:54:25;17.70;99.90
12115;DHT22;6121;49.810;6.418;2022-08-19T02:56:51;17.60;99.90
12115;DHT22;6121;49.810;6.418;2022-08-19T02:59:17;17.60;99.90
12115;DHT22;6121;49.810;6.418;2022-08-19T03:01:42;17.70;99.90
12115;DHT22;6121;49.810;6.418;2022-08-19T03:04:10;17.50;99.90
12115;DHT22;6121;49.810;6.418;2022-08-19T03:06:38;17.50;99.90
12115;DHT22;6121;49.810;6.418;2022-08-19T03:09:04;17.60;99.90
12115;DHT22;6121;49.810;6.418;2022-08-19T03:11:31;17.80;99.90
12115;DHT22;6121;49.810;6.418;2022-08-19T03:13:58;17.90;99.90
12115;DHT22;6121;49.810;6.418;2022-08-19T03:16:28;18.00;99.90
12115;DHT22;6121;49.810;6.418;2022-08-19T03:18:56;17.80;99.90
12115;DHT22;6121;49.810;6.418;2022-08-19T03:21:24;17.70;99.90
12115;DHT22;6121;49.810;6.418;2022-08-19T03:23:53;17.90;99.90
12115;DHT22;6121;49.810;6.418;2022-08-19T03:26:19;17.80;99.90
12115;DHT22;6121;49.810;6.418;2022-08-19T03:28:45;17.90;99.90
12115;DHT22;6121;49.810;6.418;2022-08-19T03:31:16;17.80;99.90
12115;DHT22;6121;49.810;6.418;2022-08-19T03:33:43;17.90;99.90
12115;DHT22;6121;49.810;6.418;2022-08-19T03:36:21;17.80;99.90
12115;DHT22;6121;49.810;6.418;2022-08-19T03:38:51;17.90;99.90
12115;DHT22;6121;49.810;6.418;2022-08-19T03:41:20;18.00;99.90
12115;DHT22;6121;49.810;6.418;2022-08-19T03:43:47;17.90;99.90
12115;DHT22;6121;49.810;6.418;2022-08-19T03:46:16;17.90;99.90
12115;DHT22;6121;49.810;6.418;2022-08-19T03:48:43;18.00;99.90
12115;DHT22;6121;49.810;6.418;2022-08-19T03:51:22;17.80;99.90
12115;DHT22;6121;49.810;6.418;2022-08-19T03:53:51;18.00;99.90
12115;DHT22;6121;49.810;6.418;2022-08-19T03:56:16;18.00;99.90
12115;DHT22;6121;49.810;6.418;2022-08-19T03:58:42;18.10;99.90
12115;DHT22;6121;49.810;6.418;2022-08-19T04:01:11;18.00;99.90
12115;DHT22;6121;49.810;6.418;2022-08-19T04:03:38;18.00;99.90
12115;DHT22;6121;49.810;6.418;2022-08-19T04:06:20;18.00;99.90
12115;DHT22;6121;49.810;6.418;2022-08-19T04:08:47;18.00;99.90
12115;DHT22;6121;49.810;6.418;2022-08-19T04:11:16;18.10;99.90
12115;DHT22;6121;49.810;6.418;2022-08-19T04:13:42;17.80;99.90
12115;DHT22;6121;49.810;6.418;2022-08-19T04:16:11;17.70;99.90
12115;DHT22;6121;49.810;6.418;2022-08-19T04:18:38;17.50;99.90
12115;DHT22;6121;49.810;6.418;2022-08-19T04:21:05;17.30;99.90
12115;DHT22;6121;49.810;6.418;2022-08-19T04:23:32;17.40;99.90
12115;DHT22;6121;49.810;6.418;2022-08-19T04:25:58;17.60;99.90
12115;DHT22;6121;49.810;6.418;2022-08-19T04:28:24;17.50;99.90
12115;DHT22;6121;49.810;6.418;2022-08-19T04:30:52;17.40;99.90
12115;DHT22;6121;49.810;6.418;2022-08-19T04:33:20;17.40;99.90
12115;DHT22;6121;49.810;6.418;2022-08-19T04:35:49;17.30;99.90
12115;DHT22;6121;49.810;6.418;2022-08-19T04:38:17;17.10;99.90
12115;DHT22;6121;49.810;6.418;2022-08-19T04:40:46;17.10;99.90
12115;DHT22;6121;49.810;6.418;2022-08-19T04:43:30;17.40;99.90
12115;DHT22;6121;49.810;6.418;2022-08-19T04:45:56;17.50;99.90
12115;DHT22;6121;49.810;6.418;2022-08-19T04:48:23;17.60;99.90
12115;DHT22;6121;49.810;6.418;2022-08-19T04:50:53;17.50;99.90
12115;DHT22;6121;49.810;6.418;2022-08-19T04:53:24;17.40;99.90
12115;DHT22;6121;49.810;6.418;2022-08-19T04:55:50;17.30;99.90
12115;DHT22;6121;49.810;6.418;2022-08-19T04:58:16;17.20;99.90
12115;DHT22;6121;49.810;6.418;2022-08-19T05:00:42;17.10;99.90
12115;DHT22;6121;49.810;6.418;2022-08-19T05:03:09;17.00;99.90
12115;DHT22;6121;49.810;6.418;2022-08-19T05:05:39;17.00;99.90
12115;DHT22;6121;49.810;6.418;2022-08-19T05:08:05;17.20;99.90
12115;DHT22;6121;49.810;6.418;2022-08-19T05:10:31;17.20;99.90
12115;DHT22;6121;49.810;6.418;2022-08-19T05:12:56;17.30;99.90
12115;DHT22;6121;49.810;6.418;2022-08-19T05:15:22;17.30;99.90
12115;DHT22;6121;49.810;6.418;2022-08-19T05:17:48;17.30;99.90
12115;DHT22;6121;49.810;6.418;2022-08-19T05:20:32;17.30;99.90
12115;DHT22;6121;49.810;6.418;2022-08-19T05:23:16;17.30;99.90
12115;DHT22;6121;49.810;6.418;2022-08-19T05:25:42;17.50;99.90
12115;DHT22;6121;49.810;6.418;2022-08-19T05:28:08;17.70;99.90
12115;DHT22;6121;49.810;6.418;2022-08-19T05:30:33;17.80;99.90
12115;DHT22;6121;49.810;6.418;2022-08-19T05:32:59;17.70;99.90
12115;DHT22;6121;49.810;6.418;2022-08-19T05:35:25;17.70;99.90
12115;DHT22;6121;49.810;6.418;2022-08-19T05:37:50;17.80;99.90
12115;DHT22;6121;49.810;6.418;2022-08-19T05:40:18;17.80;99.90
12115;DHT22;6121;49.810;6.418;2022-08-19T05:42:44;18.00;99.90
12115;DHT22;6121;49.810;6.418;2022-08-19T05:45:10;18.10;99.90
12115;DHT22;6121;49.810;6.418;2022-08-19T05:47:36;18.20;99.90
12115;DHT22;6121;49.810;6.418;2022-08-19T05:50:03;18.30;99.90
12115;DHT22;6121;49.810;6.418;2022-08-19T05:52:29;18.30;99.90
12115;DHT22;6121;49.810;6.418;2022-08-19T05:54:55;18.20;99.90
12115;DHT22;6121;49.810;6.418;2022-08-19T05:57:21;18.00;99.90
12115;DHT22;6121;49.810;6.418;2022-08-19T05:59:46;18.10;99.90
12115;DHT22;6121;49.810;6.418;2022-08-19T06:02:13;18.00;99.90
12115;DHT22;6121;49.810;6.418;2022-08-19T06:04:39;18.00;99.90
12115;DHT22;6121;49.810;6.418;2022-08-19T06:07:08;18.20;99.90
12115;DHT22;6121;49.810;6.418;2022-08-19T06:09:33;18.30;99.90
12115;DHT22;6121;49.810;6.418;2022-08-19T06:11:59;18.30;99.90
12115;DHT22;6121;49.810;6.418;2022-08-19T06:14:29;18.50;99.90
12115;DHT22;6121;49.810;6.418;2022-08-19T06:16:56;18.30;99.90
12115;DHT22;6121;49.810;6.418;2022-08-19T06:19:23;18.50;99.90
12115;DHT22;6121;49.810;6.418;2022-08-19T06:21:51;18.70;99.90
12115;DHT22;6121;49.810;6.418;2022-08-19T06:24:24;18.90;99.90
12115;DHT22;6121;49.810;6.418;2022-08-19T06:26:52;19.00;99.90
12115;DHT22;6121;49.810;6.418;2022-08-19T06:29:20;19.40;99.90
12115;DHT22;6121;49.810;6.418;2022-08-19T06:31:55;19.50;99.90
12115;DHT22;6121;49.810;6.418;2022-08-19T06:34:21;19.70;99.90
12115;DHT22;6121;49.810;6.418;2022-08-19T06:36:49;19.90;99.90
12115;DHT22;6121;49.810;6.418;2022-08-19T06:39:22;20.00;99.90
12115;DHT22;6121;49.810;6.418;2022-08-19T06:41:50;20.20;99.90
12115;DHT22;6121;49.810;6.418;2022-08-19T06:44:19;20.50;99.90
12115;DHT22;6121;49.810;6.418;2022-08-19T06:46:45;20.60;99.90
12115;DHT22;6121;49.810;6.418;2022-08-19T06:49:11;20.70;99.90
12115;DHT22;6121;49.810;6.418;2022-08-19T06:51:42;20.80;99.90
12115;DHT22;6121;49.810;6.418;2022-08-19T06:54:08;20.80;99.90
12115;DHT22;6121;49.810;6.418;2022-08-19T06:56:34;20.90;99.90
12115;DHT22;6121;49.810;6.418;2022-08-19T06:59:06;20.80;99.90
12115;DHT22;6121;49.810;6.418;2022-08-19T07:01:39;21.00;99.90
12115;DHT22;6121;49.810;6.418;2022-08-19T07:04:06;21.00;99.90
12115;DHT22;6121;49.810;6.418;2022-08-19T07:06:32;21.00;99.90
12115;DHT22;6121;49.810;6.418;2022-08-19T07:08:58;21.00;99.90
12115;DHT22;6121;49.810;6.418;2022-08-19T07:11:24;21.10;99.90
12115;DHT22;6121;49.810;6.418;2022-08-19T07:13:50;21.40;99.90
12115;DHT22;6121;49.810;6.418;2022-08-19T07:16:18;21.30;99.90
12115;DHT22;6121;49.810;6.418;2022-08-19T07:18:49;21.30;99.90
12115;DHT22;6121;49.810;6.418;2022-08-19T07:21:21;21.10;99.90
12115;DHT22;6121;49.810;6.418;2022-08-19T07:23:48;21.10;99.90
12115;DHT22;6121;49.810;6.418;2022-08-19T07:26:26;21.20;99.90
12115;DHT22;6121;49.810;6.418;2022-08-19T07:28:53;21.20;99.90
12115;DHT22;6121;49.810;6.418;2022-08-19T07:31:22;21.10;99.90
12115;DHT22;6121;49.810;6.418;2022-08-19T07:33:50;21.20;99.90
12115;DHT22;6121;49.810;6.418;2022-08-19T07:36:19;21.20;99.90
12115;DHT22;6121;49.810;6.418;2022-08-19T07:38:46;21.10;99.90
12115;DHT22;6121;49.810;6.418;2022-08-19T07:41:17;20.90;99.90
12115;DHT22;6121;49.810;6.418;2022-08-19T07:43:43;21.10;99.90
12115;DHT22;6121;49.810;6.418;2022-08-19T07:46:10;21.00;99.90
12115;DHT22;6121;49.810;6.418;2022-08-19T07:48:36;20.90;99.90
12115;DHT22;6121;49.810;6.418;2022-08-19T07:51:04;21.30;99.90
12115;DHT22;6121;49.810;6.418;2022-08-19T07:53:32;21.40;99.90
12115;DHT22;6121;49.810;6.418;2022-08-19T07:56:01;21.70;99.90
12115;DHT22;6121;49.810;6.418;2022-08-19T07:58:28;21.70;99.90
12115;DHT22;6121;49.810;6.418;2022-08-19T08:00:54;21.90;99.90
12115;DHT22;6121;49.810;6.418;2022-08-19T08:03:21;22.20;99.90
12115;DHT22;6121;49.810;6.418;2022-08-19T08:06:07;22.60;99.90
12115;DHT22;6121;49.810;6.418;2022-08-19T08:08:52;22.90;99.90
12115;DHT22;6121;49.810;6.418;2022-08-19T08:11:40;23.10;99.90
12115;DHT22;6121;49.810;6.418;2022-08-19T08:14:08;23.30;99.90
12115;DHT22;6121;49.810;6.418;2022-08-19T08:16:38;23.60;99.90
12115;DHT22;6121;49.810;6.418;2022-08-19T08:19:05;23.80;99.90
12115;DHT22;6121;49.810;6.418;2022-08-19T08:21:32;23.80;99.90
12115;DHT22;6121;49.810;6.418;2022-08-19T08:23:58;24.00;99.90
12115;DHT22;6121;49.810;6.418;2022-08-19T08:26:24;24.30;99.90
12115;DHT22;6121;49.810;6.418;2022-08-19T08:28:50;24.60;99.90
12115;DHT22;6121;49.810;6.418;2022-08-19T08:31:17;24.90;99.90
12115;DHT22;6121;49.810;6.418;2022-08-19T08:33:51;25.10;99.90
12115;DHT22;6121;49.810;6.418;2022-08-19T08:36:17;25.30;99.90
12115;DHT22;6121;49.810;6.418;2022-08-19T08:38:44;25.50;99.90
12115;DHT22;6121;49.810;6.418;2022-08-19T08:41:25;25.80;99.90
12115;DHT22;6121;49.810;6.418;2022-08-19T08:43:54;26.10;99.90
12115;DHT22;6121;49.810;6.418;2022-08-19T08:46:35;26.10;99.90
12115;DHT22;6121;49.810;6.418;2022-08-19T08:49:29;26.30;99.90
12115;DHT22;6121;49.810;6.418;2022-08-19T08:52:07;26.30;99.90
12115;DHT22;6121;49.810;6.418;2022-08-19T08:54:41;26.50;99.90
12115;DHT22;6121;49.810;6.418;2022-08-19T08:57:34;26.40;99.90
12115;DHT22;6121;49.810;6.418;2022-08-19T09:00:01;26.10;99.90
12115;DHT22;6121;49.810;6.418;2022-08-19T09:02:29;26.60;99.90
12115;DHT22;6121;49.810;6.418;2022-08-19T09:04:55;26.90;99.90
12115;DHT22;6121;49.810;6.418;2022-08-19T09:10:21;27.40;98.30
12115;DHT22;6121;49.810;6.418;2022-08-19T09:15:47;28.20;97.90
12115;DHT22;6121;49.810;6.418;2022-08-19T09:18:15;28.60;96.60
12115;DHT22;6121;49.810;6.418;2022-08-19T09:20:42;29.00;95.80
12115;DHT22;6121;49.810;6.418;2022-08-19T09:23:07;29.10;95.30
12115;DHT22;6121;49.810;6.418;2022-08-19T09:25:33;29.20;95.00
12115;DHT22;6121;49.810;6.418;2022-08-19T09:28:00;29.50;94.70
12115;DHT22;6121;49.810;6.418;2022-08-19T09:30:31;29.60;94.40
12115;DHT22;6121;49.810;6.418;2022-08-19T09:32:57;29.60;93.50
12115;DHT22;6121;49.810;6.418;2022-08-19T09:35:25;29.80;93.90
12115;DHT22;6121;49.810;6.418;2022-08-19T09:37:51;30.30;93.60
12115;DHT22;6121;49.810;6.418;2022-08-19T09:40:18;30.50;93.00
12115;DHT22;6121;49.810;6.418;2022-08-19T09:42:44;30.70;92.90
12115;DHT22;6121;49.810;6.418;2022-08-19T09:45:13;31.00;92.30
12115;DHT22;6121;49.810;6.418;2022-08-19T09:47:39;31.20;91.50
12115;DHT22;6121;49.810;6.418;2022-08-19T09:50:06;31.30;91.30
12115;DHT22;6121;49.810;6.418;2022-08-19T09:52:32;31.70;91.10
12115;DHT22;6121;49.810;6.418;2022-08-19T09:54:58;32.00;90.40
12115;DHT22;6121;49.810;6.418;2022-08-19T09:57:23;31.90;89.60
12115;DHT22;6121;49.810;6.418;2022-08-19T09:59:49;32.00;88.30
12115;DHT22;6121;49.810;6.418;2022-08-19T10:02:14;32.20;86.80
12115;DHT22;6121;49.810;6.418;2022-08-19T10:04:40;32.10;87.40
12115;DHT22;6121;49.810;6.418;2022-08-19T10:07:24;32.20;87.20
12115;DHT22;6121;49.810;6.418;2022-08-19T10:09:50;32.40;85.60
12115;DHT22;6121;49.810;6.418;2022-08-19T10:12:15;32.20;84.60
12115;DHT22;6121;49.810;6.418;2022-08-19T10:14:41;32.40;84.30
12115;DHT22;6121;49.810;6.418;2022-08-19T10:17:07;32.60;84.90
12115;DHT22;6121;49.810;6.418;2022-08-19T10:19:33;33.00;85.50
12115;DHT22;6121;49.810;6.418;2022-08-19T10:22:05;32.80;84.60
12115;DHT22;6121;49.810;6.418;2022-08-19T10:24:33;32.50;81.90
12115;DHT22;6121;49.810;6.418;2022-08-19T10:27:00;32.20;83.20
12115;DHT22;6121;49.810;6.418;2022-08-19T10:29:29;32.00;80.30
12115;DHT22;6121;49.810;6.418;2022-08-19T10:31:55;32.50;82.40
12115;DHT22;6121;49.810;6.418;2022-08-19T10:34:21;32.10;78.60
12115;DHT22;6121;49.810;6.418;2022-08-19T10:36:48;31.90;81.50
12115;DHT22;6121;49.810;6.418;2022-08-19T10:39:14;32.20;81.60
12115;DHT22;6121;49.810;6.418;2022-08-19T10:41:40;32.20;81.20
12115;DHT22;6121;49.810;6.418;2022-08-19T10:44:10;32.20;80.60
12115;DHT22;6121;49.810;6.418;2022-08-19T10:46:39;31.60;81.70
12115;DHT22;6121;49.810;6.418;2022-08-19T10:49:08;31.10;83.30
12115;DHT22;6121;49.810;6.418;2022-08-19T10:51:34;31.00;83.90
12115;DHT22;6121;49.810;6.418;2022-08-19T10:54:18;31.20;83.80
12115;DHT22;6121;49.810;6.418;2022-08-19T10:56:44;31.40;83.60
12115;DHT22;6121;49.810;6.418;2022-08-19T10:59:18;31.70;83.40
12115;DHT22;6121;49.810;6.418;2022-08-19T11:01:45;31.90;82.30
12115;DHT22;6121;49.810;6.418;2022-08-19T11:04:11;32.00;81.70
12115;DHT22;6121;49.810;6.418;2022-08-19T11:06:42;32.00;80.40
12115;DHT22;6121;49.810;6.418;2022-08-19T11:09:08;31.80;80.00
12115;DHT22;6121;49.810;6.418;2022-08-19T11:11:35;31.30;80.90
12115;DHT22;6121;49.810;6.418;2022-08-19T11:14:11;31.20;81.00
12115;DHT22;6121;49.810;6.418;2022-08-19T11:16:37;31.40;80.70
12115;DHT22;6121;49.810;6.418;2022-08-19T11:19:04;31.60;80.00
12115;DHT22;6121;49.810;6.418;2022-08-19T11:21:34;31.80;79.90
12115;DHT22;6121;49.810;6.418;2022-08-19T11:24:03;31.90;78.70
12115;DHT22;6121;49.810;6.418;2022-08-19T11:26:30;32.30;77.70
12115;DHT22;6121;49.810;6.418;2022-08-19T11:28:57;32.30;77.70
12115;DHT22;6121;49.810;6.418;2022-08-19T11:31:26;32.50;77.20
12115;DHT22;6121;49.810;6.418;2022-08-19T11:33:52;32.60;76.50
12115;DHT22;6121;49.810;6.418;2022-08-19T11:36:21;32.40;77.10
12115;DHT22;6121;49.810;6.418;2022-08-19T11:38:48;31.90;75.30
12115;DHT22;6121;49.810;6.418;2022-08-19T11:41:15;31.70;76.30
12115;DHT22;6121;49.810;6.418;2022-08-19T11:43:41;31.90;75.20
12115;DHT22;6121;49.810;6.418;2022-08-19T11:46:08;31.80;74.90
12115;DHT22;6121;49.810;6.418;2022-08-19T11:48:35;31.60;77.20
12115;DHT22;6121;49.810;6.418;2022-08-19T11:51:07;31.80;74.60
12115;DHT22;6121;49.810;6.418;2022-08-19T11:53:35;31.70;76.70
12115;DHT22;6121;49.810;6.418;2022-08-19T11:56:01;31.80;77.50
12115;DHT22;6121;49.810;6.418;2022-08-19T11:58:27;31.90;77.40
12115;DHT22;6121;49.810;6.418;2022-08-19T12:00:54;31.90;77.10
12115;DHT22;6121;49.810;6.418;2022-08-19T12:03:21;31.60;75.90
12115;DHT22;6121;49.810;6.418;2022-08-19T12:05:47;31.30;76.40
12115;DHT22;6121;49.810;6.418;2022-08-19T12:08:12;31.60;77.20
12115;DHT22;6121;49.810;6.418;2022-08-19T12:10:39;31.70;76.50
12115;DHT22;6121;49.810;6.418;2022-08-19T12:13:07;31.50;74.80
12115;DHT22;6121;49.810;6.418;2022-08-19T12:15:39;31.70;73.30
12115;DHT22;6121;49.810;6.418;2022-08-19T12:18:08;31.70;70.70
12115;DHT22;6121;49.810;6.418;2022-08-19T12:20:39;31.90;71.20
12115;DHT22;6121;49.810;6.418;2022-08-19T12:23:06;31.90;70.90
12115;DHT22;6121;49.810;6.418;2022-08-19T12:25:32;32.00;70.20
12115;DHT22;6121;49.810;6.418;2022-08-19T12:27:59;31.50;70.20
12115;DHT22;6121;49.810;6.418;2022-08-19T12:30:25;31.50;72.50
12115;DHT22;6121;49.810;6.418;2022-08-19T12:32:51;31.40;72.90
12115;DHT22;6121;49.810;6.418;2022-08-19T12:35:17;31.40;73.90
12115;DHT22;6121;49.810;6.418;2022-08-19T12:37:48;31.30;73.10
12115;DHT22;6121;49.810;6.418;2022-08-19T12:40:17;31.20;72.30
12115;DHT22;6121;49.810;6.418;2022-08-19T12:42:43;30.90;71.60
12115;DHT22;6121;49.810;6.418;2022-08-19T12:45:10;30.90;72.90
12115;DHT22;6121;49.810;6.418;2022-08-19T12:47:36;31.00;72.90
12115;DHT22;6121;49.810;6.418;2022-08-19T12:50:03;31.30;73.50
12115;DHT22;6121;49.810;6.418;2022-08-19T12:52:37;31.20;72.40
12115;DHT22;6121;49.810;6.418;2022-08-19T12:55:04;31.10;73.80
12115;DHT22;6121;49.810;6.418;2022-08-19T12:57:30;30.70;72.00
12115;DHT22;6121;49.810;6.418;2022-08-19T13:00:09;30.80;72.20
12115;DHT22;6121;49.810;6.418;2022-08-19T13:02:38;30.60;73.20
12115;DHT22;6121;49.810;6.418;2022-08-19T13:05:05;30.40;73.50
12115;DHT22;6121;49.810;6.418;2022-08-19T13:07:32;30.80;73.50
12115;DHT22;6121;49.810;6.418;2022-08-19T13:09:58;30.90;74.60
12115;DHT22;6121;49.810;6.418;2022-08-19T13:12:23;30.90;73.60
12115;DHT22;6121;49.810;6.418;2022-08-19T13:14:52;30.90;73.20
12115;DHT22;6121;49.810;6.418;2022-08-19T13:17:18;30.80;73.00
12115;DHT22;6121;49.810;6.418;2022-08-19T13:19:44;30.70;73.10
12115;DHT22;6121;49.810;6.418;2022-08-19T13:22:09;30.70;72.70
12115;DHT22;6121;49.810;6.418;2022-08-19T13:24:35;30.60;72.10
12115;DHT22;6121;49.810;6.418;2022-08-19T13:27:02;30.50;72.60
12115;DHT22;6121;49.810;6.418;2022-08-19T13:29:28;30.60;72.90
12115;DHT22;6121;49.810;6.418;2022-08-19T13:32:12;30.70;72.40
12115;DHT22;6121;49.810;6.418;2022-08-19T13:34:58;30.60;70.40
12115;DHT22;6121;49.810;6.418;2022-08-19T13:37:24;30.50;71.80
12115;DHT22;6121;49.810;6.418;2022-08-19T13:40:19;30.40;72.70
12115;DHT22;6121;49.810;6.418;2022-08-19T13:42:46;30.50;73.60
12115;DHT22;6121;49.810;6.418;2022-08-19T13:45:14;30.30;73.90
12115;DHT22;6121;49.810;6.418;2022-08-19T13:47:41;30.30;74.40
12115;DHT22;6121;49.810;6.418;2022-08-19T13:50:12;30.30;74.40
12115;DHT22;6121;49.810;6.418;2022-08-19T13:52:39;30.20;74.70
12115;DHT22;6121;49.810;6.418;2022-08-19T13:55:05;30.20;74.90
12115;DHT22;6121;49.810;6.418;2022-08-19T13:57:31;30.10;74.50
12115;DHT22;6121;49.810;6.418;2022-08-19T14:00:00;30.00;74.70
12115;DHT22;6121;49.810;6.418;2022-08-19T14:02:27;30.00;75.40
12115;DHT22;6121;49.810;6.418;2022-08-19T14:04:53;29.70;75.20
12115;DHT22;6121;49.810;6.418;2022-08-19T14:07:18;29.70;75.30
12115;DHT22;6121;49.810;6.418;2022-08-19T14:09:44;29.60;75.60
12115;DHT22;6121;49.810;6.418;2022-08-19T14:12:10;29.60;75.60
12115;DHT22;6121;49.810;6.418;2022-08-19T14:14:39;29.70;76.20
12115;DHT22;6121;49.810;6.418;2022-08-19T14:17:08;29.80;76.10
12115;DHT22;6121;49.810;6.418;2022-08-19T14:19:34;29.80;76.30
12115;DHT22;6121;49.810;6.418;2022-08-19T14:21:59;29.60;76.60
12115;DHT22;6121;49.810;6.418;2022-08-19T14:24:25;29.60;77.00
12115;DHT22;6121;49.810;6.418;2022-08-19T14:26:50;29.70;76.80
12115;DHT22;6121;49.810;6.418;2022-08-19T14:29:16;29.60;77.00
12115;DHT22;6121;49.810;6.418;2022-08-19T14:31:42;29.70;77.50
12115;DHT22;6121;49.810;6.418;2022-08-19T14:34:09;29.50;77.50
12115;DHT22;6121;49.810;6.418;2022-08-19T14:36:36;29.50;77.70
12115;DHT22;6121;49.810;6.418;2022-08-19T14:39:03;29.60;77.70
12115;DHT22;6121;49.810;6.418;2022-08-19T14:41:29;29.60;77.50
12115;DHT22;6121;49.810;6.418;2022-08-19T14:43:56;29.60;77.50
12115;DHT22;6121;49.810;6.418;2022-08-19T14:46:24;29.50;77.60
12115;DHT22;6121;49.810;6.418;2022-08-19T14:48:51;29.50;78.10
12115;DHT22;6121;49.810;6.418;2022-08-19T14:51:18;29.40;77.60
12115;DHT22;6121;49.810;6.418;2022-08-19T14:53:44;29.50;78.00
12115;DHT22;6121;49.810;6.418;2022-08-19T14:56:12;29.40;77.90
12115;DHT22;6121;49.810;6.418;2022-08-19T14:58:40;29.30;78.40
12115;DHT22;6121;49.810;6.418;2022-08-19T15:01:07;29.00;79.50
12115;DHT22;6121;49.810;6.418;2022-08-19T15:03:33;28.80;79.60
12115;DHT22;6121;49.810;6.418;2022-08-19T15:06:00;28.90;79.60
12115;DHT22;6121;49.810;6.418;2022-08-19T15:08:29;28.90;79.50
12115;DHT22;6121;49.810;6.418;2022-08-19T15:10:56;28.90;79.50
12115;DHT22;6121;49.810;6.418;2022-08-19T15:13:23;28.80;79.50
12115;DHT22;6121;49.810;6.418;2022-08-19T15:15:50;28.80;79.90
12115;DHT22;6121;49.810;6.418;2022-08-19T15:18:17;28.60;80.50
12115;DHT22;6121;49.810;6.418;2022-08-19T15:20:43;28.50;80.70
12115;DHT22;6121;49.810;6.418;2022-08-19T15:23:09;28.60;80.80
12115;DHT22;6121;49.810;6.418;2022-08-19T15:25:36;28.80;81.20
12115;DHT22;6121;49.810;6.418;2022-08-19T15:28:01;28.80;80.70
12115;DHT22;6121;49.810;6.418;2022-08-19T15:30:28;28.90;80.90
12115;DHT22;6121;49.810;6.418;2022-08-19T15:32:55;28.80;80.80
12115;DHT22;6121;49.810;6.418;2022-08-19T15:35:22;28.40;81.40
12115;DHT22;6121;49.810;6.418;2022-08-19T15:37:50;28.40;82.10
12115;DHT22;6121;49.810;6.418;2022-08-19T15:40:16;28.40;82.60
12115;DHT22;6121;49.810;6.418;2022-08-19T15:42:42;28.40;82.60
12115;DHT22;6121;49.810;6.418;2022-08-19T15:45:11;28.40;82.50
12115;DHT22;6121;49.810;6.418;2022-08-19T15:47:37;28.40;82.70
12115;DHT22;6121;49.810;6.418;2022-08-19T15:50:07;28.40;83.00
12115;DHT22;6121;49.810;6.418;2022-08-19T15:52:34;28.40;82.90
12115;DHT22;6121;49.810;6.418;2022-08-19T15:54:59;28.50;83.00
12115;DHT22;6121;49.810;6.418;2022-08-19T15:57:26;28.60;82.80